createdAt,value
2023-09-10T05:18:46.881Z,98794.84
2023-09-10T05:21:16.300Z,98794.50
2023-09-10T05:23:43.140Z,98799.56
2023-09-10T05:26:10.994Z,98803.41
2023-09-10T05:28:39.753Z,98803.34
2023-09-10T05:31:09.021Z,98802.19
2023-09-10T05:33:39.693Z,98795.97
2023-09-10T05:36:09.422Z,98800.75
2023-09-10T05:38:38.917Z,98797.28
2023-09-10T05:41:08.639Z,98798.63
2023-09-10T05:43:37.124Z,98795.69
2023-09-10T05:46:07.315Z,98799.06
2023-09-10T05:48:36.121Z,98802.34
2023-09-10T05:51:04.617Z,98799.38
2023-09-10T05:53:32.572Z,98793.94
2023-09-10T05:56:04.835Z,98807.50
2023-09-10T05:58:33.811Z,98799.25
2023-09-10T06:01:04.158Z,98810.88
2023-09-10T06:03:35.126Z,98808.88
2023-09-10T06:06:03.476Z,98807.50
2023-09-10T06:08:33.711Z,98823.06
2023-09-10T06:11:04.261Z,98811.59
2023-09-10T06:13:33.017Z,98809.31
2023-09-10T06:16:03.839Z,98806.13
2023-09-10T06:18:32.629Z,98807.31
2023-09-10T06:21:00.716Z,98809.94
2023-09-10T06:23:28.973Z,98816.38
2023-09-10T06:25:57.359Z,98814.50
2023-09-10T06:28:27.197Z,98811.38
2023-09-10T06:30:55.360Z,98819.16
2023-09-10T06:33:23.390Z,98817.72
2023-09-10T06:35:51.689Z,98816.41
2023-09-10T06:38:19.897Z,98817.84
2023-09-10T06:40:49.645Z,98820.75
2023-09-10T06:43:17.593Z,98817.97
2023-09-10T06:46:08.894Z,98818.34
2023-09-10T06:48:36.804Z,98823.00
2023-09-10T06:51:05.009Z,98821.44
2023-09-10T06:53:32.960Z,98821.19
2023-09-10T06:56:00.807Z,98819.69
2023-09-10T06:58:28.640Z,98821.13
2023-09-10T07:00:58.896Z,98822.56
2023-09-10T07:03:28.078Z,98831.31
2023-09-10T07:05:55.899Z,98832.63
2023-09-10T07:08:23.790Z,98835.91
2023-09-10T07:10:51.711Z,98837.72
2023-09-10T07:13:19.540Z,98838.19
2023-09-10T07:15:47.462Z,98837.94
2023-09-10T07:18:15.347Z,98839.44
2023-09-10T07:20:44.576Z,98829.56
2023-09-10T07:23:12.423Z,98839.69
2023-09-10T07:25:40.707Z,98841.56
2023-09-10T07:28:08.678Z,98838.00
2023-09-10T07:30:38.623Z,98834.59
2023-09-10T07:33:06.664Z,98839.09
2023-09-10T07:35:34.513Z,98849.72
2023-09-10T07:38:03.732Z,98837.88
2023-09-10T07:40:31.702Z,98839.47
2023-09-10T07:43:00.673Z,98838.75
2023-09-10T07:45:28.718Z,98855.28
2023-09-10T07:47:57.964Z,98834.00
2023-09-10T07:50:26.331Z,98837.63
2023-09-10T07:52:54.220Z,98841.25
2023-09-10T07:55:26.411Z,98837.34
2023-09-10T07:57:54.265Z,98845.50
2023-09-10T08:00:22.407Z,98848.50
2023-09-10T08:02:50.316Z,98848.47
2023-09-10T08:05:19.110Z,98849.28
2023-09-10T08:07:47.360Z,98844.72
2023-09-10T08:10:15.188Z,98846.19
2023-09-10T08:12:44.325Z,98851.81
2023-09-10T08:15:12.460Z,98847.66
2023-09-10T08:17:42.495Z,98849.94
2023-09-10T08:20:11.259Z,98855.13
2023-09-10T08:22:39.116Z,98847.63
2023-09-10T08:25:09.440Z,98845.88
2023-09-10T08:27:37.535Z,98839.50
2023-09-10T08:30:08.993Z,98852.16
2023-09-10T08:32:37.813Z,98843.47
2023-09-10T08:35:06.660Z,98844.78
2023-09-10T08:37:36.797Z,98844.22
2023-09-10T08:40:05.503Z,98841.59
2023-09-10T08:42:41.081Z,98841.63
2023-09-10T08:45:12.380Z,98843.56
2023-09-10T08:47:42.039Z,98847.13
2023-09-10T08:50:11.642Z,98845.88
2023-09-10T08:52:40.983Z,98840.56
2023-09-10T08:55:10.797Z,98845.47
2023-09-10T08:57:39.803Z,98845.94
2023-09-10T09:00:13.368Z,98839.03
2023-09-10T09:02:42.201Z,98839.91
2023-09-10T09:05:10.582Z,98844.66
2023-09-10T09:07:47.205Z,98839.94
2023-09-10T09:10:20.098Z,98838.94
2023-09-10T09:12:50.872Z,98836.72
2023-09-10T09:15:23.027Z,98840.28
2023-09-10T09:17:55.401Z,98835.47
2023-09-10T09:20:25.450Z,98837.16
2023-09-10T09:22:59.409Z,98834.28
2023-09-10T09:25:27.599Z,98835.63
2023-09-10T09:27:58.102Z,98834.00
2023-09-10T09:30:28.120Z,98842.03
2023-09-10T09:32:59.304Z,98831.72
2023-09-10T09:35:27.492Z,98824.34
2023-09-10T09:37:55.768Z,98824.69
2023-09-10T09:40:24.653Z,98821.63
2023-09-10T09:43:19.476Z,98816.34
2023-09-10T09:46:06.697Z,98817.47
2023-09-10T09:52:00.877Z,98811.31
2023-09-10T09:54:29.589Z,98812.31
2023-09-10T09:57:15.457Z,98799.34
2023-09-10T09:59:44.097Z,98808.50
2023-09-10T10:02:16.517Z,98808.34
2023-09-10T10:04:45.505Z,98801.63
2023-09-10T10:09:49.710Z,98792.78
2023-09-10T10:12:18.403Z,98792.88
2023-09-10T10:14:50.586Z,98790.94
2023-09-10T10:17:25.431Z,98787.97
2023-09-10T10:19:54.208Z,98784.50
2023-09-10T10:22:24.340Z,98784.75
2023-09-10T10:24:52.869Z,98784.50
2023-09-10T10:27:23.924Z,98778.38
2023-09-10T10:29:53.951Z,98782.22
2023-09-10T10:32:28.880Z,98772.09
2023-09-10T10:34:59.959Z,98784.19
2023-09-10T10:37:38.261Z,98770.03
2023-09-10T10:40:10.842Z,98766.59
2023-09-10T10:42:47.823Z,98766.88
2023-09-10T10:45:18.382Z,98770.59
2023-09-10T10:47:49.636Z,98764.63
2023-09-10T10:50:26.740Z,98758.47
2023-09-10T10:53:00.651Z,98767.16
2023-09-10T10:55:29.144Z,98758.50
2023-09-10T10:57:57.805Z,98757.06
2023-09-10T11:00:26.362Z,98746.44
2023-09-10T11:06:10.209Z,98739.03
2023-09-10T11:08:47.306Z,98742.44
2023-09-10T11:15:11.727Z,98756.19
2023-09-10T11:17:58.279Z,98750.38
2023-09-10T11:20:55.089Z,98745.16
2023-09-10T11:23:24.312Z,98737.50
2023-09-10T11:25:54.423Z,98736.81
2023-09-10T11:28:58.747Z,98737.13
2023-09-10T11:32:15.400Z,98730.91
2023-09-10T11:34:51.295Z,98745.09
2023-09-10T11:37:27.133Z,98740.44
2023-09-10T11:40:05.676Z,98733.59
2023-09-10T11:42:38.843Z,98729.97
2023-09-10T11:45:10.805Z,98722.25
2023-09-10T11:47:46.950Z,98728.66
2023-09-10T11:50:22.906Z,98726.63
2023-09-10T11:52:50.977Z,98719.34
2023-09-10T11:55:20.580Z,98719.81
2023-09-10T11:57:48.451Z,98724.28
2023-09-10T12:00:17.795Z,98713.44
2023-09-10T12:02:45.920Z,98721.09
2023-09-10T12:05:13.925Z,98707.34
2023-09-10T12:07:45.227Z,98708.56
2023-09-10T12:10:14.830Z,98712.44
2023-09-10T12:12:48.234Z,98703.66
2023-09-10T12:15:16.563Z,98704.44
2023-09-10T12:17:44.929Z,98699.84
2023-09-10T12:20:14.273Z,98705.22
2023-09-10T12:22:42.234Z,98706.13
2023-09-10T12:25:10.882Z,98700.13
2023-09-10T12:27:39.038Z,98711.47
2023-09-10T12:30:09.553Z,98697.06
2023-09-10T12:32:40.712Z,98695.59
2023-09-10T12:35:09.252Z,98696.22
2023-09-10T12:37:37.096Z,98693.00
2023-09-10T12:40:06.253Z,98688.13
2023-09-10T12:42:34.854Z,98690.84
2023-09-10T12:45:03.393Z,98688.50
2023-09-10T12:47:32.765Z,98689.63
2023-09-10T12:50:01.281Z,98681.78
2023-09-10T12:52:29.270Z,98686.25
2023-09-10T12:54:57.128Z,98683.28
2023-09-10T12:57:24.935Z,98678.81
2023-09-10T12:59:54.686Z,98678.16
2023-09-10T13:02:24.232Z,98675.88
2023-09-10T13:04:55.670Z,98671.34
2023-09-10T13:07:26.148Z,98674.81
2023-09-10T13:09:54.304Z,98661.88
2023-09-10T13:12:22.971Z,98652.13
2023-09-10T13:14:50.727Z,98650.00
2023-09-10T13:17:19.655Z,98647.56
2023-09-10T13:19:48.015Z,98667.50
2023-09-10T13:22:17.224Z,98654.16
2023-09-10T13:24:45.031Z,98661.50
2023-09-10T13:27:13.487Z,98643.28
2023-09-10T13:29:41.550Z,98638.44
2023-09-10T13:32:09.536Z,98655.16
2023-09-10T13:34:37.400Z,98656.50
2023-09-10T13:37:05.699Z,98654.50
2023-09-10T13:39:35.591Z,98649.63
2023-09-10T13:42:04.099Z,98643.53
2023-09-10T13:44:32.486Z,98646.00
2023-09-10T13:47:00.332Z,98638.16
2023-09-10T13:49:28.389Z,98637.38
2023-09-10T13:51:56.328Z,98637.72
2023-09-10T13:54:24.085Z,98642.59
2023-09-10T13:56:53.236Z,98637.53
2023-09-10T13:59:21.140Z,98635.19
2023-09-10T14:01:49.825Z,98628.97
2023-09-10T14:04:17.814Z,98642.59
2023-09-10T14:06:45.603Z,98636.31
2023-09-10T14:09:13.800Z,98627.16
2023-09-10T14:11:41.608Z,98633.75
2023-09-10T14:14:10.797Z,98635.81
2023-09-10T14:16:38.890Z,98630.97
2023-09-10T14:19:06.724Z,98629.91
2023-09-10T14:21:35.608Z,98629.75
2023-09-10T14:24:04.048Z,98633.00
2023-09-10T14:26:32.054Z,98630.88
2023-09-10T14:29:00.095Z,98617.28
2023-09-10T14:31:29.374Z,98631.50
2023-09-10T14:33:57.383Z,98626.97
2023-09-10T14:36:25.304Z,98626.13
2023-09-10T14:38:53.526Z,98625.63
2023-09-10T14:41:21.760Z,98618.56
2023-09-10T14:43:49.742Z,98628.38
2023-09-10T14:46:17.632Z,98616.47
2023-09-10T14:48:48.038Z,98609.84
2023-09-10T14:51:15.837Z,98617.28
2023-09-10T14:53:45.794Z,98617.59
2023-09-10T14:56:13.686Z,98612.75
2023-09-10T14:58:41.530Z,98608.06
2023-09-10T15:01:09.399Z,98611.38
2023-09-10T15:03:37.262Z,98607.22
2023-09-10T15:06:07.714Z,98594.28
2023-09-10T15:08:35.774Z,98598.06
2023-09-10T15:11:03.804Z,98603.84
2023-09-10T15:13:33.932Z,98594.97
2023-09-10T15:16:04.170Z,98594.97
2023-09-10T15:18:32.069Z,98595.31
2023-09-10T15:21:02.501Z,98589.06
2023-09-10T15:23:34.069Z,98596.44
2023-09-10T15:26:01.966Z,98587.81
2023-09-10T15:28:29.816Z,98594.53
2023-09-10T15:30:58.185Z,98588.16
2023-09-10T15:33:25.967Z,98580.31
2023-09-10T15:35:53.916Z,98588.72
2023-09-10T15:38:21.752Z,98579.81
2023-09-10T15:40:55.906Z,98586.50
2023-09-10T15:43:24.001Z,98582.13
2023-09-10T15:45:54.654Z,98579.97
2023-09-10T15:48:23.070Z,98571.63
2023-09-10T15:50:51.311Z,98571.63
2023-09-10T15:53:19.316Z,98571.59
2023-09-10T15:55:47.409Z,98575.00
2023-09-10T15:58:17.224Z,98579.41
2023-09-10T16:00:45.225Z,98583.78
2023-09-10T16:03:13.400Z,98576.31
2023-09-10T16:05:43.236Z,98576.69
2023-09-10T16:08:11.342Z,98573.50
2023-09-10T16:10:39.712Z,98572.69
2023-09-10T16:13:07.793Z,98578.03
2023-09-10T16:15:37.011Z,98572.78
2023-09-10T16:18:07.361Z,98575.81
2023-09-10T16:20:35.393Z,98579.38
2023-09-10T16:23:03.518Z,98574.91
2023-09-10T16:25:31.518Z,98576.66
2023-09-10T16:27:59.389Z,98574.56
2023-09-10T16:30:29.468Z,98581.59
2023-09-10T16:32:58.751Z,98582.66
2023-09-10T16:35:28.975Z,98579.28
2023-09-10T16:37:56.915Z,98578.22
2023-09-10T16:40:24.786Z,98572.22
2023-09-10T16:42:52.981Z,98582.72
2023-09-10T16:45:20.834Z,98574.91
2023-09-10T16:47:48.830Z,98578.28
2023-09-10T16:50:18.495Z,98586.53
2023-09-10T16:52:47.023Z,98582.63
2023-09-10T16:55:15.850Z,98585.09
2023-09-10T16:57:56.446Z,98586.03
2023-09-10T17:00:24.827Z,98584.56
2023-09-10T17:02:55.777Z,98580.97
2023-09-10T17:05:29.428Z,98580.03
2023-09-10T17:08:04.675Z,98577.34
2023-09-10T17:10:38.637Z,98571.28
2023-09-10T17:13:06.967Z,98568.09
2023-09-10T17:15:37.083Z,98571.69
2023-09-10T17:18:05.429Z,98576.03
2023-09-10T17:20:35.537Z,98565.59
2023-09-10T17:23:03.398Z,98571.03
2023-09-10T17:25:31.186Z,98573.13
2023-09-10T17:27:59.109Z,98567.13
2023-09-10T17:30:27.004Z,98572.78
2023-09-10T17:32:58.389Z,98563.50
2023-09-10T17:35:29.456Z,98567.50
2023-09-10T17:37:58.702Z,98567.59
2023-09-10T17:40:27.242Z,98568.22
2023-09-10T17:42:55.224Z,98576.78
2023-09-10T17:45:23.071Z,98577.91
2023-09-10T17:47:51.391Z,98581.16
2023-09-10T17:50:19.614Z,98583.56
2023-09-10T17:52:47.453Z,98587.50
2023-09-10T17:55:16.835Z,98582.38
2023-09-10T17:57:44.873Z,98580.44
2023-09-10T18:00:13.430Z,98589.34
2023-09-10T18:02:41.732Z,98584.88
2023-09-10T18:05:10.069Z,98592.53
2023-09-10T18:07:38.447Z,98589.84
2023-09-10T18:10:07.130Z,98593.66
2023-09-10T18:12:36.321Z,98601.81
2023-09-10T18:15:04.858Z,98597.38
2023-09-10T18:17:34.344Z,98602.75
2023-09-10T18:20:04.516Z,98606.56
2023-09-10T18:22:32.736Z,98598.19
2023-09-10T18:25:01.167Z,98607.72
2023-09-10T18:27:29.012Z,98610.72
2023-09-10T18:29:58.273Z,98606.84
2023-09-10T18:32:26.524Z,98612.88
2023-09-10T18:34:54.446Z,98613.19
2023-09-10T18:37:24.443Z,98611.75
2023-09-10T18:39:52.295Z,98614.50
2023-09-10T18:42:20.127Z,98616.31
2023-09-10T18:44:48.108Z,98622.72
2023-09-10T18:47:17.366Z,98614.91
2023-09-10T18:49:45.266Z,98617.66
2023-09-10T18:52:15.576Z,98614.09
2023-09-10T18:54:44.046Z,98612.44
2023-09-10T18:57:14.967Z,98622.75
2023-09-10T18:59:43.348Z,98612.56
2023-09-10T19:02:11.565Z,98615.75
2023-09-10T19:04:41.378Z,98617.38
2023-09-10T19:07:11.319Z,98622.66
2023-09-10T19:09:39.632Z,98614.16
2023-09-10T19:12:07.985Z,98628.34
2023-09-10T19:14:35.966Z,98627.06
2023-09-10T19:17:03.876Z,98634.38
2023-09-10T19:19:32.599Z,98634.06
2023-09-10T19:22:02.331Z,98629.28
2023-09-10T19:24:30.148Z,98622.34
2023-09-10T19:26:58.379Z,98632.06
2023-09-10T19:29:26.341Z,98629.34
2023-09-10T19:31:56.929Z,98632.72
2023-09-10T19:34:25.923Z,98633.00
2023-09-10T19:36:53.760Z,98631.19
2023-09-10T19:39:30.420Z,98631.75
2023-09-10T19:42:02.259Z,98636.06
2023-09-10T19:44:33.584Z,98630.59
2023-09-10T19:47:03.958Z,98641.00
2023-09-10T19:49:35.072Z,98635.84
2023-09-10T19:52:03.005Z,98637.66
2023-09-10T19:54:32.533Z,98643.44
2023-09-10T19:57:01.906Z,98650.81
2023-09-10T19:59:32.930Z,98643.94
2023-09-10T20:02:00.909Z,98640.91
2023-09-10T20:04:29.751Z,98646.22
2023-09-10T20:07:01.160Z,98644.72
2023-09-10T20:09:30.109Z,98646.03
2023-09-10T20:11:59.340Z,98642.59
2023-09-10T20:14:31.896Z,98646.16
2023-09-10T20:16:59.885Z,98650.88
2023-09-10T20:19:32.485Z,98646.38
2023-09-10T20:22:03.705Z,98650.97
2023-09-10T20:24:34.005Z,98648.50
2023-09-10T20:27:04.103Z,98648.97
2023-09-10T20:29:34.205Z,98650.41
2023-09-10T20:32:02.262Z,98654.19
2023-09-10T20:34:30.091Z,98650.75
2023-09-10T20:36:57.967Z,98646.72
2023-09-10T20:39:25.839Z,98636.31
2023-09-10T20:41:56.788Z,98643.31
2023-09-10T20:44:26.011Z,98645.66
2023-09-10T20:46:54.156Z,98644.38
2023-09-10T20:49:22.039Z,98645.31
2023-09-10T20:51:51.941Z,98645.97
2023-09-10T20:54:19.755Z,98647.78
2023-09-10T20:56:47.606Z,98643.53
2023-09-10T20:59:15.997Z,98645.91
2023-09-10T21:01:45.265Z,98638.09
2023-09-10T21:04:13.493Z,98634.03
2023-09-10T21:06:42.339Z,98636.13
2023-09-10T21:09:10.364Z,98643.69
2023-09-10T21:11:40.778Z,98640.56
2023-09-10T21:14:11.202Z,98649.97
2023-09-10T21:16:39.016Z,98645.50
2023-09-10T21:19:08.149Z,98648.63
2023-09-10T21:21:36.005Z,98646.31
2023-09-10T21:24:09.009Z,98654.00
2023-09-10T21:26:36.873Z,98647.22
2023-09-10T21:29:04.885Z,98646.09
2023-09-10T21:31:32.848Z,98636.41
2023-09-10T21:34:00.751Z,98637.06
2023-09-10T21:36:29.925Z,98645.53
2023-09-10T21:38:57.755Z,98644.63
2023-09-10T21:41:25.685Z,98641.50
2023-09-10T21:43:53.505Z,98645.69
2023-09-10T21:46:21.319Z,98638.53
2023-09-10T21:48:49.174Z,98641.91
2023-09-10T21:51:17.121Z,98639.78
2023-09-10T21:53:47.665Z,98639.13
2023-09-10T21:56:17.964Z,98632.38
2023-09-10T21:58:45.968Z,98646.59
2023-09-10T22:01:14.002Z,98635.38
2023-09-10T22:03:42.137Z,98629.59
2023-09-10T22:06:10.055Z,98638.31
2023-09-10T22:08:37.979Z,98628.38
2023-09-10T22:11:07.723Z,98630.97
2023-09-10T22:13:35.903Z,98629.69
2023-09-10T22:16:03.846Z,98619.09
2023-09-10T22:18:31.722Z,98623.97
2023-09-10T22:20:59.711Z,98627.59
2023-09-10T22:23:27.706Z,98622.38
2023-09-10T22:25:55.600Z,98614.56
2023-09-10T22:28:25.490Z,98617.56
2023-09-10T22:30:53.326Z,98617.81
2023-09-10T22:33:21.209Z,98621.69
2023-09-10T22:35:49.297Z,98620.81
2023-09-10T22:38:17.256Z,98623.13
2023-09-10T22:40:45.160Z,98619.44
2023-09-10T22:43:13.007Z,98619.78
2023-09-10T22:45:42.243Z,98618.47
2023-09-10T22:48:10.300Z,98621.22
2023-09-10T22:50:38.543Z,98611.53
2023-09-10T22:53:06.358Z,98611.03
2023-09-10T22:55:36.274Z,98612.53
2023-09-10T22:58:06.392Z,98609.44
2023-09-10T23:00:34.866Z,98615.63
2023-09-10T23:03:08.070Z,98618.84
2023-09-10T23:05:36.709Z,98612.22
2023-09-10T23:08:05.290Z,98609.91
2023-09-10T23:10:33.201Z,98613.47
2023-09-10T23:13:00.979Z,98611.66
2023-09-10T23:15:29.267Z,98608.69
2023-09-10T23:17:57.713Z,98606.41
2023-09-10T23:20:26.968Z,98603.25
2023-09-10T23:23:00.310Z,98606.88
2023-09-10T23:25:28.402Z,98599.56
2023-09-10T23:27:56.299Z,98603.25
2023-09-10T23:30:24.379Z,98598.25
2023-09-10T23:32:52.333Z,98595.00
2023-09-10T23:35:20.234Z,98603.34
2023-09-10T23:37:49.532Z,98593.41
2023-09-10T23:40:17.394Z,98595.50
2023-09-10T23:42:46.259Z,98596.09
2023-09-10T23:45:14.815Z,98585.09
2023-09-10T23:47:42.933Z,98585.28
2023-09-10T23:50:11.467Z,98586.28
2023-09-10T23:52:39.435Z,98579.09
2023-09-10T23:55:09.965Z,98574.78
2023-09-10T23:57:37.766Z,98576.03
